createdAt,value
2019-03-03T00:00:58.480Z,23.00
2019-03-03T00:01:58.787Z,22.00
2019-03-03T00:02:59.150Z,22.50
2019-03-03T00:03:59.333Z,22.80
2019-03-03T00:04:59.617Z,22.50
2019-03-03T00:05:59.873Z,20.90
2019-03-03T00:07:00.168Z,22.30
2019-03-03T00:08:00.435Z,21.10
2019-03-03T00:09:00.671Z,21.60
2019-03-03T00:10:00.972Z,22.30
2019-03-03T00:11:01.343Z,21.80
2019-03-03T00:12:01.499Z,22.20
2019-03-03T00:13:01.792Z,22.10
2019-03-03T00:14:02.018Z,21.00
2019-03-03T00:15:02.321Z,21.10
2019-03-03T00:16:02.571Z,21.40
2019-03-03T00:17:02.836Z,22.50
2019-03-03T00:18:03.129Z,21.80
2019-03-03T00:19:03.427Z,21.40
2019-03-03T00:20:03.645Z,21.20
2019-03-03T00:21:08.666Z,23.30
2019-03-03T00:22:04.211Z,21.30
2019-03-03T00:23:04.467Z,21.20
2019-03-03T00:24:04.686Z,21.80
2019-03-03T00:25:04.997Z,20.60
2019-03-03T00:26:05.244Z,21.20
2019-03-03T00:27:05.623Z,21.90
2019-03-03T00:28:05.826Z,21.30
2019-03-03T00:29:06.019Z,21.30
2019-03-03T00:30:06.318Z,21.60
2019-03-03T00:31:06.570Z,22.20
2019-03-03T00:32:06.875Z,21.80
2019-03-03T00:33:07.168Z,21.60
2019-03-03T00:34:07.415Z,22.10
2019-03-03T00:35:07.706Z,22.30
2019-03-03T00:36:07.947Z,22.10
2019-03-03T00:37:08.199Z,22.30
2019-03-03T00:38:08.458Z,22.30
2019-03-03T00:39:08.759Z,22.30
2019-03-03T00:40:08.967Z,22.10
2019-03-03T00:41:09.263Z,22.10
2019-03-03T00:42:09.545Z,22.60
2019-03-03T00:43:09.810Z,21.90
2019-03-03T00:44:10.201Z,22.20
2019-03-03T00:45:10.364Z,22.60
2019-03-03T00:46:10.618Z,23.70
2019-03-03T00:47:10.904Z,22.30
2019-03-03T00:48:11.144Z,22.30
2019-03-03T00:49:11.473Z,22.90
2019-03-03T00:50:11.789Z,22.50
2019-03-03T00:51:11.940Z,22.80
2019-03-03T00:52:14.167Z,22.90
2019-03-03T00:53:12.490Z,23.00
2019-03-03T00:54:12.961Z,22.70
2019-03-03T00:55:13.291Z,22.90
2019-03-03T00:56:13.285Z,23.60
2019-03-03T00:57:13.584Z,22.60
2019-03-03T00:58:13.838Z,23.50
2019-03-03T00:59:14.142Z,22.30
2019-03-03T01:00:14.419Z,22.70
2019-03-03T01:01:14.617Z,23.20
2019-03-03T01:02:14.907Z,22.20
2019-03-03T01:03:15.173Z,23.40
2019-03-03T01:04:15.508Z,23.30
2019-03-03T01:05:15.715Z,23.30
2019-03-03T01:06:15.972Z,23.00
2019-03-03T01:07:16.242Z,23.90
2019-03-03T01:08:16.522Z,22.90
2019-03-03T01:09:16.788Z,23.00
2019-03-03T01:10:17.043Z,23.50
2019-03-03T01:11:17.303Z,23.60
2019-03-03T01:12:17.595Z,24.60
2019-03-03T01:13:17.833Z,25.30
2019-03-03T01:14:18.166Z,25.60
2019-03-03T01:15:18.391Z,25.10
2019-03-03T01:16:18.670Z,23.90
2019-03-03T01:17:19.016Z,24.30
2019-03-03T01:18:19.171Z,24.30
2019-03-03T01:19:19.476Z,25.40
2019-03-03T01:20:19.730Z,26.20
2019-03-03T01:21:20.000Z,25.40
2019-03-03T01:22:20.265Z,29.10
2019-03-03T01:23:20.588Z,30.30
2019-03-03T01:24:20.819Z,30.80
2019-03-03T01:25:21.234Z,30.50
2019-03-03T01:26:21.355Z,31.40
2019-03-03T01:27:21.641Z,31.90
2019-03-03T01:28:21.897Z,33.20
2019-03-03T01:29:22.144Z,33.30
2019-03-03T01:30:22.436Z,32.50
2019-03-03T01:31:22.691Z,34.10
2019-03-03T01:32:22.963Z,33.30
2019-03-03T01:33:23.296Z,32.50
2019-03-03T01:34:23.496Z,30.30
2019-03-03T01:35:23.751Z,31.10
2019-03-03T01:36:24.022Z,31.60
2019-03-03T01:37:24.313Z,32.30
2019-03-03T01:38:24.578Z,31.20
2019-03-03T01:39:24.806Z,29.90
2019-03-03T01:40:25.170Z,29.50
2019-03-03T01:41:25.399Z,29.10
2019-03-03T01:42:25.617Z,30.30
2019-03-03T01:43:25.899Z,31.60
2019-03-03T01:44:26.162Z,31.40
2019-03-03T01:45:26.428Z,31.00
2019-03-03T01:46:26.671Z,30.10
2019-03-03T01:47:26.947Z,31.80
2019-03-03T01:48:27.298Z,31.40
2019-03-03T01:49:27.550Z,32.30
2019-03-03T01:50:27.848Z,34.10
2019-03-03T01:51:28.009Z,33.40
2019-03-03T01:52:28.303Z,34.00
2019-03-03T01:53:28.654Z,35.50
2019-03-03T01:54:28.842Z,38.10
2019-03-03T01:55:29.134Z,37.70
2019-03-03T01:56:29.385Z,37.50
2019-03-03T01:57:29.653Z,39.20
2019-03-03T01:58:30.091Z,37.60
2019-03-03T01:59:30.168Z,38.10
2019-03-03T02:00:30.468Z,37.60
2019-03-03T02:01:30.719Z,36.10
2019-03-03T02:02:30.975Z,35.40
2019-03-03T02:03:31.274Z,34.20
2019-03-03T02:04:31.520Z,35.00
2019-03-03T02:05:31.814Z,35.60
2019-03-03T02:06:32.211Z,35.30
2019-03-03T02:07:32.311Z,34.30
2019-03-03T02:08:32.610Z,35.20
2019-03-03T02:09:32.864Z,34.50
2019-03-03T02:10:33.140Z,36.80
2019-03-03T02:11:33.431Z,36.70
2019-03-03T02:12:33.677Z,36.00
2019-03-03T02:13:33.970Z,36.80
2019-03-03T02:14:34.276Z,35.20
2019-03-03T02:15:34.477Z,33.40
2019-03-03T02:16:34.734Z,34.20
2019-03-03T02:17:35.005Z,33.60
2019-03-03T02:18:35.339Z,33.10
2019-03-03T02:19:35.520Z,33.80
2019-03-03T02:20:35.786Z,32.90
2019-03-03T02:21:36.062Z,34.80
2019-03-03T02:22:36.375Z,33.90
2019-03-03T02:23:36.602Z,34.50
2019-03-03T02:24:36.849Z,37.40
2019-03-03T02:25:37.103Z,38.60
2019-03-03T02:26:37.424Z,38.10
2019-03-03T02:27:37.683Z,39.00
2019-03-03T02:28:37.971Z,40.40
2019-03-03T02:29:38.222Z,39.60
2019-03-03T02:30:38.518Z,41.20
2019-03-03T02:31:38.878Z,42.70
2019-03-03T02:32:39.043Z,41.90
2019-03-03T02:33:39.600Z,41.90
2019-03-03T02:34:39.577Z,42.00
2019-03-03T02:35:39.850Z,40.80
2019-03-03T02:36:40.132Z,41.60
2019-03-03T02:37:40.370Z,39.70
2019-03-03T02:38:40.674Z,38.00
2019-03-03T02:39:41.038Z,41.70
2019-03-03T02:40:41.207Z,41.30
2019-03-03T02:41:41.463Z,40.10
2019-03-03T02:42:41.721Z,38.70
2019-03-03T02:43:42.031Z,38.20
2019-03-03T02:44:42.258Z,37.60
2019-03-03T02:45:42.529Z,38.00
2019-03-03T02:46:42.830Z,39.50
2019-03-03T02:47:43.149Z,38.70
2019-03-03T02:48:43.345Z,36.40
2019-03-03T02:49:43.596Z,37.80
2019-03-03T02:50:43.865Z,37.80
2019-03-03T02:51:44.169Z,37.40
2019-03-03T02:52:44.388Z,38.50
2019-03-03T02:53:44.702Z,39.30
2019-03-03T02:54:44.960Z,36.30
2019-03-03T02:55:45.252Z,37.00
2019-03-03T02:56:45.517Z,37.30
2019-03-03T02:57:45.745Z,38.80
2019-03-03T02:58:46.016Z,36.90
2019-03-03T02:59:46.356Z,36.70
2019-03-03T03:00:46.568Z,39.30
2019-03-03T03:01:46.847Z,37.00
2019-03-03T03:02:47.130Z,35.90
2019-03-03T03:03:47.412Z,35.40
2019-03-03T03:04:47.705Z,34.70
2019-03-03T03:05:48.006Z,34.80
2019-03-03T03:06:48.278Z,33.00
2019-03-03T03:07:48.515Z,32.60
2019-03-03T03:08:48.806Z,34.60
2019-03-03T03:09:49.051Z,34.10
2019-03-03T03:10:49.311Z,33.80
2019-03-03T03:11:49.681Z,34.00
2019-03-03T03:12:49.976Z,35.20
2019-03-03T03:13:50.163Z,33.80
2019-03-03T03:14:50.491Z,35.10
2019-03-03T03:15:50.666Z,34.40
2019-03-03T03:16:50.979Z,33.90
2019-03-03T03:17:51.221Z,33.80
2019-03-03T03:18:51.506Z,33.70
2019-03-03T03:19:51.759Z,34.50
2019-03-03T03:20:52.146Z,35.50
2019-03-03T03:21:52.357Z,34.60
2019-03-03T03:22:52.555Z,34.90
2019-03-03T03:23:52.846Z,34.70
2019-03-03T03:24:53.103Z,34.50
2019-03-03T03:25:53.370Z,34.50
2019-03-03T03:26:53.650Z,35.40
2019-03-03T03:27:53.907Z,34.30
2019-03-03T03:28:54.240Z,33.80
2019-03-03T03:29:54.456Z,34.50
2019-03-03T03:30:54.748Z,33.80
2019-03-03T03:31:55.038Z,34.00
2019-03-03T03:32:55.273Z,34.00
2019-03-03T03:33:55.554Z,34.10
2019-03-03T03:34:55.849Z,34.30
2019-03-03T03:35:56.109Z,34.10
2019-03-03T03:36:56.489Z,34.10
2019-03-03T03:37:56.611Z,34.90
2019-03-03T03:38:56.908Z,33.20
2019-03-03T03:39:57.202Z,34.10
2019-03-03T03:40:57.450Z,35.00
2019-03-03T03:41:57.740Z,34.80
2019-03-03T03:42:58.000Z,35.00
2019-03-03T03:43:58.239Z,33.90
2019-03-03T03:44:58.564Z,32.70
2019-03-03T03:45:58.839Z,33.70
2019-03-03T03:46:59.086Z,33.70
2019-03-03T03:47:59.363Z,33.30
2019-03-03T03:48:59.589Z,34.10
2019-03-03T03:49:59.891Z,33.30
2019-03-03T03:51:00.146Z,33.80
2019-03-03T03:52:00.436Z,33.60
2019-03-03T03:53:00.701Z,34.30
2019-03-03T03:54:01.054Z,34.20
2019-03-03T03:55:01.231Z,32.90
2019-03-03T03:56:01.495Z,32.50
2019-03-03T03:57:01.785Z,34.10
2019-03-03T03:58:02.048Z,33.60
2019-03-03T03:59:02.301Z,32.50
2019-03-03T04:00:02.588Z,34.00
2019-03-03T04:01:02.826Z,32.10
2019-03-03T04:02:03.260Z,34.00
2019-03-03T04:03:03.399Z,32.90
2019-03-03T04:04:03.639Z,33.80
2019-03-03T04:05:03.919Z,32.60
2019-03-03T04:06:04.190Z,34.80
2019-03-03T04:07:04.477Z,33.60
2019-03-03T04:08:04.728Z,34.00
2019-03-03T04:09:04.981Z,33.20
2019-03-03T04:10:05.315Z,34.70
2019-03-03T04:11:05.492Z,35.70
2019-03-03T04:12:06.024Z,35.60
2019-03-03T04:13:06.070Z,37.80
2019-03-03T04:14:06.336Z,37.10
2019-03-03T04:15:06.615Z,37.80
2019-03-03T04:16:06.869Z,38.30
2019-03-03T04:17:07.154Z,39.60
2019-03-03T04:18:07.451Z,41.20
2019-03-03T04:19:07.649Z,38.70
2019-03-03T04:20:07.943Z,37.90
2019-03-03T04:21:08.263Z,36.00
2019-03-03T04:22:08.489Z,35.80
2019-03-03T04:23:08.748Z,35.30
2019-03-03T04:24:09.010Z,36.30
2019-03-03T04:25:09.300Z,34.80
2019-03-03T04:26:10.081Z,34.20
2019-03-03T04:27:09.926Z,32.80
2019-03-03T04:28:10.102Z,31.60
2019-03-03T04:29:10.366Z,31.20
2019-03-03T04:30:10.665Z,31.70
2019-03-03T04:31:10.913Z,33.90
2019-03-03T04:32:11.183Z,34.40
2019-03-03T04:33:11.469Z,34.60
2019-03-03T04:34:11.713Z,36.40
2019-03-03T04:35:12.476Z,34.80
2019-03-03T04:36:12.263Z,34.50
2019-03-03T04:37:12.524Z,34.90
2019-03-03T04:38:12.810Z,35.30
2019-03-03T04:39:13.065Z,34.90
2019-03-03T04:40:13.400Z,34.90
2019-03-03T04:41:13.646Z,37.30
2019-03-03T04:42:13.899Z,37.70
2019-03-03T04:43:14.305Z,36.60
2019-03-03T04:44:14.424Z,36.50
2019-03-03T04:45:14.703Z,36.20
2019-03-03T04:46:14.965Z,36.70
2019-03-03T04:47:15.240Z,33.90
2019-03-03T04:48:15.524Z,35.60
2019-03-03T04:49:15.783Z,33.10
2019-03-03T04:50:16.060Z,34.00
2019-03-03T04:51:16.347Z,34.80
2019-03-03T04:52:16.559Z,33.20
2019-03-03T04:53:16.852Z,32.70
2019-03-03T04:54:17.111Z,31.50
2019-03-03T04:55:17.393Z,31.00
2019-03-03T04:56:17.636Z,30.00
2019-03-03T04:57:17.891Z,31.20
2019-03-03T04:58:18.190Z,30.60
2019-03-03T04:59:18.481Z,30.20
2019-03-03T05:00:18.730Z,28.70
2019-03-03T05:01:18.975Z,28.50
2019-03-03T05:02:19.233Z,27.50
2019-03-03T05:03:19.524Z,26.70
2019-03-03T05:04:19.805Z,27.30
2019-03-03T05:05:20.073Z,26.90
2019-03-03T05:06:20.321Z,27.20
2019-03-03T05:07:20.636Z,26.20
2019-03-03T05:08:20.994Z,25.50
2019-03-03T05:09:21.122Z,24.90
2019-03-03T05:10:21.408Z,25.00
2019-03-03T05:11:21.658Z,27.40
2019-03-03T05:12:21.925Z,25.60
2019-03-03T05:13:22.208Z,26.00
2019-03-03T05:14:22.468Z,26.00
2019-03-03T05:15:22.755Z,25.10
2019-03-03T05:16:23.148Z,23.90
2019-03-03T05:17:23.242Z,23.00
2019-03-03T05:18:23.528Z,24.40
2019-03-03T05:19:23.807Z,23.60
2019-03-03T05:20:24.108Z,22.20
2019-03-03T05:21:24.344Z,21.80
2019-03-03T05:22:24.611Z,21.90
2019-03-03T05:23:24.904Z,22.40
2019-03-03T05:24:33.657Z,21.60
2019-03-03T05:25:26.430Z,22.00
2019-03-03T05:26:25.673Z,21.30
2019-03-03T05:27:25.936Z,21.00
2019-03-03T05:28:26.229Z,21.30
2019-03-03T05:29:26.464Z,21.30
2019-03-03T05:30:26.762Z,21.90
2019-03-03T05:31:27.019Z,20.50
2019-03-03T05:32:27.314Z,20.20
2019-03-03T05:33:27.554Z,20.30
2019-03-03T05:34:27.805Z,20.10
2019-03-03T05:35:28.069Z,20.50
2019-03-03T05:36:28.334Z,19.70
2019-03-03T05:37:28.625Z,19.10
2019-03-03T05:38:28.901Z,19.70
2019-03-03T05:39:29.162Z,19.90
2019-03-03T05:40:29.465Z,19.90
2019-03-03T05:41:29.801Z,19.10
2019-03-03T05:42:29.990Z,18.40
2019-03-03T05:43:30.273Z,19.30
2019-03-03T05:44:30.525Z,17.80
2019-03-03T05:45:30.820Z,18.60
2019-03-03T05:46:31.081Z,18.70
2019-03-03T05:47:31.335Z,17.70
2019-03-03T05:48:31.644Z,18.50
2019-03-03T05:49:32.239Z,16.70
2019-03-03T05:50:32.163Z,18.60
2019-03-03T05:51:32.421Z,17.80
2019-03-03T05:52:32.670Z,18.20
2019-03-03T05:53:32.972Z,18.20
2019-03-03T05:54:33.221Z,17.20
2019-03-03T05:55:33.499Z,18.70
2019-03-03T05:56:33.781Z,17.70
2019-03-03T05:57:34.125Z,18.00
2019-03-03T05:58:34.312Z,19.30
2019-03-03T05:59:34.561Z,21.60
2019-03-03T06:00:34.845Z,23.30
2019-03-03T06:01:35.118Z,23.80
2019-03-03T06:02:35.369Z,24.80
2019-03-03T06:03:35.639Z,23.70
2019-03-03T06:04:35.905Z,22.70
2019-03-03T06:05:36.261Z,23.30
2019-03-03T06:06:36.442Z,24.70
2019-03-03T06:07:36.699Z,23.60
2019-03-03T06:08:36.988Z,22.90
2019-03-03T06:09:37.223Z,22.60
2019-03-03T06:10:37.539Z,22.60
2019-03-03T06:11:37.793Z,22.60
2019-03-03T06:12:38.038Z,21.40
2019-03-03T06:13:38.383Z,21.30
2019-03-03T06:14:38.540Z,21.00
2019-03-03T06:15:38.860Z,19.80
2019-03-03T06:16:39.140Z,17.20
2019-03-03T06:17:39.396Z,18.80
2019-03-03T06:18:39.680Z,17.40
2019-03-03T06:19:39.934Z,17.00
2019-03-03T06:20:40.197Z,18.40
2019-03-03T06:21:40.493Z,18.60
2019-03-03T06:22:40.867Z,18.70
2019-03-03T06:23:41.008Z,18.30
2019-03-03T06:24:41.266Z,18.20
2019-03-03T06:25:41.554Z,17.70
2019-03-03T06:26:41.821Z,17.60
2019-03-03T06:27:42.087Z,17.70
2019-03-03T06:28:42.383Z,16.50
2019-03-03T06:29:42.629Z,15.40
2019-03-03T06:30:43.039Z,16.30
2019-03-03T06:31:43.182Z,16.50
2019-03-03T06:32:43.432Z,16.40
2019-03-03T06:33:43.715Z,15.60
2019-03-03T06:34:43.973Z,15.30
2019-03-03T06:35:44.267Z,14.80
2019-03-03T06:36:44.509Z,14.90
2019-03-03T06:37:44.767Z,14.70
2019-03-03T06:38:45.139Z,15.60
2019-03-03T06:39:45.300Z,14.90
2019-03-03T06:40:45.572Z,14.20
2019-03-03T06:41:45.868Z,14.10
2019-03-03T06:42:46.092Z,14.00
2019-03-03T06:43:46.379Z,14.10
2019-03-03T06:44:46.664Z,15.10
2019-03-03T06:45:46.932Z,14.10
2019-03-03T06:46:47.287Z,15.00
2019-03-03T06:47:47.449Z,14.50
2019-03-03T06:48:47.713Z,14.70
2019-03-03T06:49:48.016Z,14.30
2019-03-03T06:50:48.282Z,14.40
2019-03-03T06:51:48.570Z,13.60
2019-03-03T06:52:48.820Z,13.70
2019-03-03T06:53:49.097Z,13.00
2019-03-03T06:54:49.390Z,12.90
2019-03-03T06:55:49.724Z,13.00
2019-03-03T06:56:49.959Z,12.10
2019-03-03T06:57:50.204Z,12.80
2019-03-03T06:58:50.459Z,13.00
2019-03-03T06:59:50.744Z,12.30
2019-03-03T07:00:51.010Z,12.50
2019-03-03T07:01:51.329Z,11.60
2019-03-03T07:02:51.586Z,13.20
2019-03-03T07:03:51.978Z,11.80
2019-03-03T07:04:52.107Z,11.90
2019-03-03T07:05:52.380Z,12.60
2019-03-03T07:06:52.669Z,12.60
2019-03-03T07:07:52.910Z,12.50
2019-03-03T07:08:53.180Z,12.10
2019-03-03T07:09:53.460Z,12.20
2019-03-03T07:10:53.717Z,11.20
2019-03-03T07:11:54.143Z,10.20
2019-03-03T07:12:54.265Z,10.10
2019-03-03T07:13:54.532Z,10.00
2019-03-03T07:14:54.823Z,10.40
2019-03-03T07:15:55.056Z,10.40
2019-03-03T07:16:55.386Z,10.00
2019-03-03T07:17:55.613Z,9.80
2019-03-03T07:18:55.906Z,9.30
2019-03-03T07:19:56.192Z,9.50
2019-03-03T07:20:56.382Z,9.80
2019-03-03T07:21:56.677Z,8.80
2019-03-03T07:22:56.942Z,9.90
2019-03-03T07:23:57.219Z,9.70
2019-03-03T07:24:57.497Z,9.40
2019-03-03T07:25:57.808Z,8.50
2019-03-03T07:26:58.278Z,8.30
2019-03-03T07:27:58.559Z,8.10
2019-03-03T07:28:58.524Z,8.10
2019-03-03T07:29:58.811Z,7.60
2019-03-03T07:30:59.069Z,8.10
2019-03-03T07:31:59.385Z,7.40
2019-03-03T07:32:59.603Z,7.60
2019-03-03T07:33:59.862Z,8.10
2019-03-03T07:35:00.275Z,7.50
2019-03-03T07:36:00.457Z,7.00
2019-03-03T07:37:00.778Z,7.50
2019-03-03T07:38:00.949Z,7.30
2019-03-03T07:39:01.201Z,8.00
2019-03-03T07:40:01.503Z,7.70
2019-03-03T07:41:01.755Z,7.10
2019-03-03T07:42:02.050Z,7.30
2019-03-03T07:43:02.292Z,7.20
2019-03-03T07:44:02.564Z,6.80
2019-03-03T07:45:04.515Z,6.70
2019-03-03T07:46:03.081Z,6.30
2019-03-03T07:47:03.384Z,6.30
2019-03-03T07:48:03.622Z,6.20
2019-03-03T07:49:03.890Z,6.10
2019-03-03T07:50:04.162Z,6.60
2019-03-03T07:51:04.437Z,6.80
2019-03-03T07:52:04.735Z,6.90
2019-03-03T07:53:05.042Z,6.70
2019-03-03T07:54:05.227Z,7.10
2019-03-03T07:55:05.499Z,6.40
2019-03-03T07:56:05.768Z,7.20
2019-03-03T07:57:06.042Z,6.20
2019-03-03T07:58:06.304Z,6.40
2019-03-03T07:59:06.571Z,6.20
2019-03-03T08:00:06.870Z,6.80
2019-03-03T08:01:07.142Z,6.10
2019-03-03T08:02:07.370Z,5.80
2019-03-03T08:03:07.651Z,6.20
2019-03-03T08:04:07.917Z,5.90
2019-03-03T08:05:08.203Z,5.80
2019-03-03T08:06:08.452Z,6.10
2019-03-03T08:07:08.751Z,6.30
2019-03-03T08:08:09.000Z,5.60
2019-03-03T08:09:09.354Z,5.70
2019-03-03T08:10:09.558Z,5.90
2019-03-03T08:11:09.807Z,5.40
2019-03-03T08:12:10.109Z,6.00
2019-03-03T08:13:10.351Z,6.50
2019-03-03T08:14:10.612Z,5.80
2019-03-03T08:15:10.904Z,5.50
2019-03-03T08:16:11.161Z,6.10
2019-03-03T08:17:11.552Z,5.20
2019-03-03T08:18:11.780Z,5.90
2019-03-03T08:19:11.964Z,5.90
2019-03-03T08:20:12.242Z,5.10
2019-03-03T08:21:12.497Z,5.30
2019-03-03T08:22:12.806Z,5.60
2019-03-03T08:23:13.047Z,5.30
2019-03-03T08:24:13.285Z,4.90
2019-03-03T08:25:13.601Z,5.50
2019-03-03T08:26:13.937Z,5.70
2019-03-03T08:27:14.279Z,5.40
2019-03-03T08:28:14.365Z,5.10
2019-03-03T08:29:14.616Z,5.00
2019-03-03T08:30:14.921Z,5.00
2019-03-03T08:31:15.174Z,5.30
2019-03-03T08:32:15.470Z,5.30
2019-03-03T08:33:15.733Z,5.80
2019-03-03T08:34:16.031Z,5.70
2019-03-03T08:35:16.278Z,5.80
2019-03-03T08:36:16.500Z,5.40
2019-03-03T08:37:16.784Z,5.50
2019-03-03T08:38:17.067Z,5.60
2019-03-03T08:39:17.312Z,5.40
2019-03-03T08:40:17.607Z,5.80
2019-03-03T08:41:17.855Z,5.00
2019-03-03T08:42:18.169Z,6.10
2019-03-03T08:43:18.401Z,5.80
2019-03-03T08:44:18.657Z,5.40
2019-03-03T08:45:18.971Z,6.20
2019-03-03T08:46:19.174Z,5.60
2019-03-03T08:47:19.460Z,6.00
2019-03-03T08:48:22.657Z,5.90
2019-03-03T08:49:19.991Z,6.30
2019-03-03T08:50:20.346Z,6.00
2019-03-03T08:51:20.539Z,5.90
2019-03-03T08:52:20.817Z,5.50
2019-03-03T08:53:21.100Z,5.50
2019-03-03T08:54:21.334Z,5.80
2019-03-03T08:55:21.648Z,5.00
2019-03-03T08:56:21.881Z,5.70
2019-03-03T08:57:22.124Z,5.60
2019-03-03T08:58:22.419Z,5.30
2019-03-03T08:59:22.780Z,5.30
2019-03-03T09:00:22.969Z,5.60
2019-03-03T09:01:23.210Z,5.40
2019-03-03T09:02:23.466Z,5.40
2019-03-03T09:03:23.766Z,5.30
2019-03-03T09:04:24.016Z,5.70
2019-03-03T09:05:24.295Z,5.60
2019-03-03T09:06:24.787Z,5.00
2019-03-03T09:07:24.947Z,6.10
2019-03-03T09:08:25.122Z,5.30
2019-03-03T09:09:26.120Z,5.20
2019-03-03T09:10:25.749Z,5.60
2019-03-03T09:11:25.932Z,5.50
2019-03-03T09:12:26.201Z,6.00
2019-03-03T09:13:26.479Z,6.10
2019-03-03T09:14:26.745Z,5.80
2019-03-03T09:15:27.101Z,5.90
2019-03-03T09:16:27.282Z,5.50
2019-03-03T09:17:27.548Z,5.90
2019-03-03T09:18:27.837Z,5.70
2019-03-03T09:19:28.071Z,5.90
2019-03-03T09:20:28.362Z,6.60
2019-03-03T09:21:28.636Z,5.80
2019-03-03T09:22:28.888Z,5.70
2019-03-03T09:23:29.221Z,6.00
2019-03-03T09:24:29.437Z,6.40
2019-03-03T09:25:29.663Z,5.80
2019-03-03T09:26:29.958Z,5.90
2019-03-03T09:27:30.211Z,6.40
2019-03-03T09:28:30.502Z,5.60
2019-03-03T09:29:30.783Z,5.60
2019-03-03T09:30:31.006Z,5.80
2019-03-03T09:31:31.321Z,5.90
2019-03-03T09:32:31.612Z,5.50
2019-03-03T09:33:31.834Z,5.50
2019-03-03T09:34:32.102Z,5.90
2019-03-03T09:35:32.344Z,5.60
2019-03-03T09:36:32.643Z,5.50
2019-03-03T09:37:32.919Z,5.60
2019-03-03T09:38:33.239Z,5.60
2019-03-03T09:39:33.502Z,5.60
2019-03-03T09:40:33.823Z,5.50
2019-03-03T09:41:34.001Z,5.70
2019-03-03T09:42:34.252Z,5.70
2019-03-03T09:43:34.537Z,6.20
2019-03-03T09:44:34.817Z,5.70
2019-03-03T09:45:35.048Z,5.40
2019-03-03T09:46:35.325Z,5.40
2019-03-03T09:47:35.577Z,5.10
2019-03-03T09:48:35.951Z,5.50
2019-03-03T09:49:36.148Z,5.20
2019-03-03T09:50:36.391Z,5.40
2019-03-03T09:51:36.658Z,5.80
2019-03-03T09:52:36.911Z,5.60
2019-03-03T09:53:37.214Z,5.50
2019-03-03T09:54:37.483Z,5.10
2019-03-03T09:55:37.735Z,5.60
2019-03-03T09:56:38.054Z,4.80
2019-03-03T09:57:38.232Z,5.40
2019-03-03T09:58:38.546Z,5.60
2019-03-03T09:59:38.850Z,5.90
2019-03-03T10:00:39.694Z,5.10
2019-03-03T10:01:39.365Z,4.90
2019-03-03T10:02:39.614Z,5.20
2019-03-03T10:03:39.861Z,5.40
2019-03-03T10:04:40.240Z,5.10
2019-03-03T10:05:40.388Z,4.90
2019-03-03T10:06:40.688Z,5.30
2019-03-03T10:07:40.940Z,5.50
2019-03-03T10:08:41.218Z,5.40
2019-03-03T10:09:41.499Z,5.30
2019-03-03T10:10:41.753Z,5.20
2019-03-03T10:11:42.032Z,5.10
2019-03-03T10:12:42.318Z,5.80
2019-03-03T10:13:42.636Z,5.10
2019-03-03T10:14:42.854Z,5.20
2019-03-03T10:15:43.146Z,5.20
2019-03-03T10:16:43.396Z,4.90
2019-03-03T10:17:43.676Z,4.70
2019-03-03T10:18:43.908Z,4.80
2019-03-03T10:19:44.242Z,5.50
2019-03-03T10:20:44.440Z,5.40
2019-03-03T10:21:47.691Z,4.70
2019-03-03T10:22:44.990Z,5.10
2019-03-03T10:23:45.258Z,5.10
2019-03-03T10:24:45.835Z,5.20
2019-03-03T10:26:01.161Z,5.30
2019-03-03T10:28:07.344Z,5.20
2019-03-03T10:29:00.229Z,5.40
2019-03-03T10:30:04.287Z,5.30
2019-03-03T10:31:00.157Z,5.40
2019-03-03T10:32:00.328Z,5.00
2019-03-03T10:33:00.595Z,5.40
2019-03-03T10:34:00.859Z,5.20
2019-03-03T10:35:01.144Z,5.20
2019-03-03T10:36:01.417Z,6.00
2019-03-03T10:37:01.662Z,5.20
2019-03-03T10:38:02.963Z,5.50
2019-03-03T10:39:02.345Z,5.30
2019-03-03T10:40:02.517Z,5.70
2019-03-03T10:41:02.752Z,5.20
2019-03-03T10:42:03.077Z,5.10
2019-03-03T10:43:03.337Z,5.30
2019-03-03T10:44:03.554Z,4.90
2019-03-03T10:45:04.082Z,5.70
2019-03-03T10:46:04.072Z,5.40
2019-03-03T10:47:04.435Z,5.20
2019-03-03T10:48:04.686Z,5.20
2019-03-03T10:49:04.963Z,5.10
2019-03-03T10:50:05.188Z,4.70
2019-03-03T10:51:05.466Z,5.20
2019-03-03T10:52:05.719Z,6.40
2019-03-03T10:53:05.982Z,5.60
2019-03-03T10:54:06.247Z,5.40
2019-03-03T10:55:06.574Z,5.30
2019-03-03T10:56:06.778Z,5.10
2019-03-03T10:57:07.070Z,5.50
2019-03-03T10:58:07.329Z,5.50
2019-03-03T10:59:07.598Z,5.10
2019-03-03T11:00:07.879Z,5.40
2019-03-03T11:01:08.142Z,6.20
2019-03-03T11:02:08.402Z,5.90
2019-03-03T11:03:08.708Z,5.20
2019-03-03T11:04:09.013Z,5.10
2019-03-03T11:05:09.225Z,5.70
2019-03-03T11:06:09.486Z,5.50
2019-03-03T11:07:09.743Z,5.00
2019-03-03T11:08:10.155Z,5.10
2019-03-03T11:09:10.266Z,5.60
2019-03-03T11:10:10.571Z,5.40
2019-03-03T11:11:10.826Z,5.10
2019-03-03T11:12:11.212Z,5.10
2019-03-03T11:13:11.371Z,5.30
2019-03-03T11:14:11.626Z,5.30
2019-03-03T11:15:18.208Z,4.60
2019-03-03T11:16:13.469Z,4.60
2019-03-03T11:17:12.449Z,5.30
2019-03-03T11:18:14.014Z,5.00
2019-03-03T11:19:12.983Z,5.20
2019-03-03T11:20:13.339Z,4.90
2019-03-03T11:21:13.515Z,5.20
2019-03-03T11:22:13.773Z,5.10
2019-03-03T11:23:14.068Z,4.60
2019-03-03T11:24:14.321Z,5.00
2019-03-03T11:25:14.742Z,4.50
2019-03-03T11:26:14.872Z,4.50
2019-03-03T11:27:15.134Z,4.90
2019-03-03T11:28:23.352Z,5.00
2019-03-03T11:29:17.245Z,4.90
2019-03-03T11:30:15.930Z,5.00
2019-03-03T11:31:16.183Z,5.20
2019-03-03T11:32:16.472Z,4.80
2019-03-03T11:33:16.759Z,4.60
2019-03-03T11:34:17.014Z,4.50
2019-03-03T11:35:17.285Z,5.00
2019-03-03T11:36:17.583Z,5.00
2019-03-03T11:37:17.880Z,4.60
2019-03-03T11:38:18.109Z,4.90
2019-03-03T11:39:18.359Z,4.90
2019-03-03T11:40:18.636Z,4.60
2019-03-03T11:41:18.921Z,5.10
2019-03-03T11:42:19.796Z,5.70
2019-03-03T11:43:19.469Z,4.40
2019-03-03T11:44:19.737Z,4.60
2019-03-03T11:45:20.119Z,4.40
2019-03-03T11:46:20.301Z,4.50
2019-03-03T11:47:20.545Z,4.50
2019-03-03T11:48:20.866Z,4.40
2019-03-03T11:49:21.155Z,4.80
2019-03-03T11:50:21.371Z,4.50
2019-03-03T11:51:21.700Z,4.90
2019-03-03T11:52:21.904Z,4.70
2019-03-03T11:53:22.289Z,4.80
2019-03-03T11:54:22.425Z,5.20
2019-03-03T11:55:22.701Z,4.70
2019-03-03T11:56:23.020Z,4.30
2019-03-03T11:57:23.235Z,4.60
2019-03-03T11:58:23.520Z,5.10
2019-03-03T11:59:23.752Z,4.80
2019-03-03T12:00:24.043Z,5.10
2019-03-03T12:01:24.409Z,5.10
2019-03-03T12:02:24.561Z,5.30
2019-03-03T12:03:24.890Z,5.00
2019-03-03T12:04:29.250Z,4.90
2019-03-03T12:05:25.353Z,4.70
2019-03-03T12:06:25.692Z,5.10
2019-03-03T12:07:25.913Z,5.00
2019-03-03T12:08:26.201Z,4.60
2019-03-03T12:09:26.475Z,4.70
2019-03-03T12:10:26.758Z,4.70
2019-03-03T12:11:27.205Z,4.70
2019-03-03T12:12:27.255Z,4.80
2019-03-03T12:13:27.539Z,4.70
2019-03-03T12:14:27.791Z,4.90
2019-03-03T12:15:28.058Z,4.50
2019-03-03T12:16:28.352Z,4.80
2019-03-03T12:17:28.619Z,6.00
2019-03-03T12:18:29.008Z,5.50
2019-03-03T12:19:29.158Z,5.00
2019-03-03T12:20:29.427Z,6.30
2019-03-03T12:21:29.706Z,5.20
2019-03-03T12:22:29.960Z,5.70
2019-03-03T12:23:30.247Z,6.50
2019-03-03T12:24:35.311Z,5.60
2019-03-03T12:25:30.773Z,5.50
2019-03-03T12:26:31.261Z,6.40
2019-03-03T12:27:31.295Z,5.10
2019-03-03T12:28:31.596Z,5.30
2019-03-03T12:29:31.847Z,5.60
2019-03-03T12:30:32.109Z,5.20
2019-03-03T12:31:32.458Z,4.80
2019-03-03T12:32:32.652Z,5.60
2019-03-03T12:33:32.921Z,5.10
2019-03-03T12:34:33.241Z,5.70
2019-03-03T12:35:33.441Z,5.70
2019-03-03T12:36:33.761Z,5.60
2019-03-03T12:37:33.986Z,5.30
2019-03-03T12:38:34.271Z,6.30
2019-03-03T12:39:34.507Z,5.70
2019-03-03T12:40:34.789Z,6.00
2019-03-03T12:41:35.099Z,5.40
2019-03-03T12:42:35.388Z,5.80
2019-03-03T12:43:35.598Z,5.10
2019-03-03T12:44:35.846Z,5.10
2019-03-03T12:45:36.133Z,5.80
2019-03-03T12:46:36.478Z,5.40
2019-03-03T12:47:36.689Z,5.90
2019-03-03T12:48:36.994Z,5.40
2019-03-03T12:49:37.228Z,5.80
2019-03-03T12:50:37.512Z,5.70
2019-03-03T12:51:37.913Z,5.70
2019-03-03T12:52:38.051Z,5.30
2019-03-03T12:53:38.315Z,5.20
2019-03-03T12:54:38.585Z,5.00
2019-03-03T12:55:38.837Z,5.60
2019-03-03T12:56:39.150Z,5.40
2019-03-03T12:57:39.394Z,6.10
2019-03-03T12:58:39.660Z,5.80
2019-03-03T12:59:40.087Z,5.70
2019-03-03T13:00:40.198Z,5.00
2019-03-03T13:01:40.530Z,5.10
2019-03-03T13:02:40.773Z,5.70
2019-03-03T13:03:41.035Z,5.50
2019-03-03T13:04:41.332Z,5.70
2019-03-03T13:05:41.580Z,5.60
2019-03-03T13:06:41.904Z,5.90
2019-03-03T13:07:42.194Z,5.90
2019-03-03T13:08:42.378Z,6.00